Spirit Lake, IA

7:39 PM CST on December 22, 2014 (GMT -0600)
Estherville Municipal | Change Station
CLOSE
Current Station
Airport
Location: Estherville,
Elevation: 1316 ft
Nearby Weather Stations

Elev 1316 ft 43.40 °N, 94.75 °W | Updated 12 minutes ago

Overcast
Overcast
33 °F
Feels Like 26 °F
N
9
Wind Variable Wind from East

Today
High -- | Low -- °F
--% Chance of Precip.
Yesterday
High -- | Low -- °F
Precip. -- in
7:50 AM 4:47 PM
New Moon, 1% visible
Pressure 29.49 in
Visibility 1.0 miles
Clouds Overcast 200 ft
Windchill 26 °F
Dew Point 33 °F
Humidity 100%
Rainfall 0.06 in
Snow Depth Not available.
UV 0 out of 12
Pollen .10 out of 12
Air Quality Not available.
Flu Activity Not available.
SPECI KEST 230127Z AUTO 09008KT 1SM BR OVC002 01/01 A2949 RMK AO2 T00060006

More Conditions Fewer Conditions

Pressure 29.49 in
Visibility 1.0 miles
Clouds Overcast 200 ft
Windchill 26 °F
Dew Point 33 °F
Humidity 100%
Rainfall 0.06 in
Snow Depth Not available.
UV 0 out of 12
Pollen .10 out of 12
Air Quality Not available.
Flu Activity Not available.
SPECI KEST 230127Z AUTO 09008KT 1SM BR OVC002 01/01 A2949 RMK AO2 T00060006

More Conditions Fewer Conditions

10-Day Weather Forecast

Almanac

Astronomy

Dec. 22, 2014 Rise Set
Actual Time
Civil Twilight
Nautical Twilight
Astronomical Twilight
Moon
Length of Visible Light
Length of Day
Tomorrow will be .
, % of the Moon is Illuminated

Today's Extremes

State Highs State Lows

Community

WunderPhotos

Upload Photos

1,779,753 photos uploaded!

WunderBlogs® & News

Nearby

Air Quality

  Air Quality AQ Index Pollutant
Not available.

Snow Depth

Station Depth Elevation

Earthquake Activity

City Distance Mag. Time & Date
Minimum magnitude displayed is 2.5.

Coastal Water Temperatures

Place Temperature

Nearby Weather Stations